createdAt,value
2019-02-12T00:00:20.191Z,101520.00
2019-02-12T00:02:54.945Z,101523.00
2019-02-12T00:05:27.779Z,101519.00
2019-02-12T00:08:00.605Z,101522.00
2019-02-12T00:10:33.424Z,101526.00
2019-02-12T00:13:06.252Z,101522.00
2019-02-12T00:15:39.111Z,101534.00
2019-02-12T00:18:11.894Z,101532.00
2019-02-12T00:20:44.733Z,101544.00
2019-02-12T00:23:17.548Z,101545.00
2019-02-12T00:25:50.390Z,101549.00
2019-02-12T00:28:23.201Z,101552.00
2019-02-12T00:30:57.157Z,101546.00
2019-02-12T00:33:30.981Z,101553.00
2019-02-12T00:36:03.814Z,101563.00
2019-02-12T00:38:36.712Z,101565.00
2019-02-12T00:41:10.646Z,101571.00
2019-02-12T00:43:43.501Z,101558.00
2019-02-12T00:46:16.337Z,101553.00
2019-02-12T00:48:49.132Z,101551.00
2019-02-12T00:51:21.959Z,101539.00
2019-02-12T00:53:54.772Z,101542.00
2019-02-12T00:56:27.614Z,101545.00
2019-02-12T00:59:00.422Z,101546.00
2019-02-12T01:01:33.240Z,101552.00
2019-02-12T01:04:06.046Z,101556.00
2019-02-12T01:06:38.888Z,101558.00
2019-02-12T01:09:11.684Z,101569.00
2019-02-12T01:11:44.549Z,101575.00
2019-02-12T01:14:17.461Z,101570.00
2019-02-12T01:16:50.290Z,101576.00
2019-02-12T01:19:23.090Z,101580.00
2019-02-12T01:21:56.053Z,101573.00
2019-02-12T01:24:28.835Z,101586.00
2019-02-12T01:27:01.651Z,101581.00
2019-02-12T01:29:34.486Z,101591.00
2019-02-12T01:32:07.322Z,101585.00
2019-02-12T01:34:40.205Z,101606.00
2019-02-12T01:37:13.045Z,101616.00
2019-02-12T01:39:45.861Z,101602.00
2019-02-12T01:42:18.735Z,101614.00
2019-02-12T01:44:51.519Z,101615.00
2019-02-12T01:47:24.355Z,101608.00
2019-02-12T01:49:57.141Z,101613.00
2019-02-12T01:52:29.990Z,101613.00
2019-02-12T01:55:02.896Z,101602.00
2019-02-12T01:57:35.750Z,101615.00
2019-02-12T02:00:11.707Z,101609.00
2019-02-12T02:02:44.547Z,101602.00
2019-02-12T02:05:17.393Z,101599.00
2019-02-12T02:07:50.242Z,101594.00
2019-02-12T02:10:23.060Z,101604.00
2019-02-12T02:12:55.975Z,101607.00
2019-02-12T02:15:28.788Z,101597.00
2019-02-12T02:18:01.663Z,101595.00
2019-02-12T02:20:34.464Z,101586.00
2019-02-12T02:23:07.287Z,101590.00
2019-02-12T02:25:40.085Z,101590.00
2019-02-12T02:28:12.908Z,101590.00
2019-02-12T02:30:45.738Z,101586.00
2019-02-12T02:33:18.600Z,101593.00
2019-02-12T02:35:51.935Z,101589.00
2019-02-12T02:38:24.807Z,101595.00
2019-02-12T02:40:57.634Z,101606.00
2019-02-12T02:43:30.452Z,101603.00
2019-02-12T02:46:03.284Z,101615.00
2019-02-12T02:48:36.127Z,101623.00
2019-02-12T02:51:08.935Z,101638.00
2019-02-12T02:53:41.757Z,101638.00
2019-02-12T02:56:14.566Z,101645.00
2019-02-12T02:58:47.370Z,101630.00
2019-02-12T03:01:20.179Z,101626.00
2019-02-12T03:03:52.966Z,101636.00
2019-02-12T03:06:25.794Z,101633.00
2019-02-12T03:08:58.610Z,101637.00
2019-02-12T03:11:31.424Z,101626.00
2019-02-12T03:14:04.237Z,101637.00
2019-02-12T03:16:37.087Z,101638.00
2019-02-12T03:19:09.928Z,101647.00
2019-02-12T03:21:43.745Z,101642.00
2019-02-12T03:24:16.621Z,101644.00
2019-02-12T03:26:49.439Z,101648.00
2019-02-12T03:29:22.261Z,101641.00
2019-02-12T03:31:55.101Z,101646.00
2019-02-12T03:34:27.966Z,101649.00
2019-02-12T03:37:00.840Z,101647.00
2019-02-12T03:39:33.691Z,101660.00
2019-02-12T03:42:06.478Z,101664.00
2019-02-12T03:44:39.310Z,101663.00
2019-02-12T03:47:12.133Z,101671.00
2019-02-12T03:49:44.968Z,101656.00
2019-02-12T03:52:17.720Z,101680.00
2019-02-12T03:54:50.647Z,101669.00
2019-02-12T03:57:23.547Z,101683.00
2019-02-12T03:59:56.393Z,101682.00
2019-02-12T04:02:29.217Z,101684.00
2019-02-12T04:05:02.324Z,101682.00
2019-02-12T04:07:35.212Z,101665.00
2019-02-12T04:10:08.033Z,101680.00
2019-02-12T04:12:40.852Z,101680.00
2019-02-12T04:15:13.697Z,101675.00
2019-02-12T04:17:46.526Z,101681.00
2019-02-12T04:20:19.370Z,101675.00
2019-02-12T04:22:52.163Z,101681.00
2019-02-12T04:25:25.036Z,101684.00
2019-02-12T04:27:57.844Z,101684.00
2019-02-12T04:30:30.715Z,101682.00
2019-02-12T04:33:03.538Z,101672.00
2019-02-12T04:35:36.349Z,101685.00
2019-02-12T04:38:09.248Z,101677.00
2019-02-12T04:40:42.065Z,101671.00
2019-02-12T04:43:14.949Z,101668.00
2019-02-12T04:45:47.776Z,101668.00
2019-02-12T04:48:20.602Z,101675.00
2019-02-12T04:50:53.449Z,101677.00
2019-02-12T04:53:26.281Z,101665.00
2019-02-12T04:56:00.943Z,101671.00
2019-02-12T04:58:33.695Z,101677.00
2019-02-12T05:01:06.589Z,101673.00
2019-02-12T05:03:39.405Z,101672.00
2019-02-12T05:06:12.326Z,101671.00
2019-02-12T05:09:09.234Z,101664.00
2019-02-12T05:11:46.690Z,101678.00
2019-02-12T05:14:19.537Z,101684.00
2019-02-12T05:16:52.399Z,101686.00
2019-02-12T05:19:25.219Z,101690.00
2019-02-12T05:21:58.129Z,101696.00
2019-02-12T05:24:30.964Z,101694.00
2019-02-12T05:27:04.786Z,101696.00
2019-02-12T05:29:37.752Z,101692.00
2019-02-12T05:32:10.566Z,101685.00
2019-02-12T05:34:43.389Z,101686.00
2019-02-12T05:37:16.190Z,101697.00
2019-02-12T05:39:49.051Z,101695.00
2019-02-12T05:42:21.982Z,101693.00
2019-02-12T05:44:54.827Z,101697.00
2019-02-12T05:47:27.653Z,101694.00
2019-02-12T05:50:00.538Z,101689.00
2019-02-12T05:52:33.287Z,101692.00
2019-02-12T05:55:06.228Z,101701.00
2019-02-12T05:57:39.053Z,101691.00
2019-02-12T06:00:15.075Z,101706.00
2019-02-12T06:02:47.898Z,101697.00
2019-02-12T06:05:26.458Z,101696.00
2019-02-12T06:07:59.321Z,101703.00
2019-02-12T06:10:32.159Z,101701.00
2019-02-12T06:13:05.320Z,101704.00
2019-02-12T06:15:38.122Z,101702.00
2019-02-12T06:18:10.953Z,101709.00
2019-02-12T06:20:43.794Z,101710.00
2019-02-12T06:23:16.638Z,101711.00
2019-02-12T06:25:49.428Z,101719.00
2019-02-12T06:28:22.258Z,101714.00
2019-02-12T06:30:55.091Z,101714.00
2019-02-12T06:33:27.933Z,101709.00
2019-02-12T06:36:00.785Z,101722.00
2019-02-12T06:38:33.713Z,101733.00
2019-02-12T06:41:06.529Z,101743.00
2019-02-12T06:43:39.396Z,101740.00
2019-02-12T06:46:12.234Z,101739.00
2019-02-12T06:48:45.067Z,101743.00
2019-02-12T06:51:17.905Z,101743.00
2019-02-12T06:53:50.756Z,101745.00
2019-02-12T06:56:23.547Z,101749.00
2019-02-12T06:58:56.364Z,101747.00
2019-02-12T07:01:29.153Z,101749.00
2019-02-12T07:04:13.189Z,101747.00
2019-02-12T07:08:01.565Z,101749.00
2019-02-12T07:10:37.003Z,101755.00
2019-02-12T07:13:58.256Z,101770.00
2019-02-12T07:17:19.697Z,101776.00
2019-02-12T07:21:06.435Z,101783.00
2019-02-12T07:24:36.122Z,101782.00
2019-02-12T07:28:15.146Z,101784.00
2019-02-12T07:32:13.421Z,101799.00
2019-02-12T07:35:37.931Z,101800.00
2019-02-12T07:38:35.850Z,101805.00
2019-02-12T07:42:27.214Z,101816.00
2019-02-12T07:46:02.860Z,101804.00
2019-02-12T07:49:35.569Z,101814.00
2019-02-12T07:53:08.633Z,101812.00
2019-02-12T07:56:12.939Z,101828.00
2019-02-12T07:59:25.977Z,101829.00
2019-02-12T08:02:46.939Z,101840.00
2019-02-12T08:06:14.962Z,101835.00
2019-02-12T08:09:53.270Z,101843.00
2019-02-12T08:13:03.732Z,101854.00
2019-02-12T08:16:13.912Z,101852.00
2019-02-12T08:19:19.571Z,101853.00
2019-02-12T08:22:40.679Z,101855.00
2019-02-12T08:25:57.402Z,101849.00
2019-02-12T08:29:00.656Z,101853.00
2019-02-12T08:32:32.102Z,101856.00
2019-02-12T08:36:07.588Z,101871.00
2019-02-12T08:39:08.857Z,101862.00
2019-02-12T08:42:44.710Z,101872.00
2019-02-12T08:46:02.030Z,101872.00
2019-02-12T08:49:53.473Z,101875.00
2019-02-12T08:53:12.772Z,101881.00
2019-02-12T08:56:38.515Z,101883.00
2019-02-12T08:59:49.432Z,101886.00
2019-02-12T09:03:21.007Z,101898.00
2019-02-12T09:07:22.061Z,101888.00
2019-02-12T09:11:04.458Z,101896.00
2019-02-12T09:14:40.281Z,101895.00
2019-02-12T09:18:05.400Z,101899.00
2019-02-12T09:21:18.801Z,101908.00
2019-02-12T09:24:28.740Z,101906.00
2019-02-12T09:27:48.259Z,101906.00
2019-02-12T09:30:40.432Z,101900.00
2019-02-12T09:33:52.954Z,101901.00
2019-02-12T09:37:15.142Z,101911.00
2019-02-12T09:40:30.613Z,101907.00
2019-02-12T09:43:45.256Z,101905.00
2019-02-12T09:47:21.264Z,101916.00
2019-02-12T09:51:07.877Z,101922.00
2019-02-12T09:55:02.055Z,101924.00
2019-02-12T09:58:37.677Z,101919.00
2019-02-12T10:01:39.630Z,101927.00
2019-02-12T10:05:02.995Z,101936.00
2019-02-12T10:08:58.381Z,101937.00
2019-02-12T10:12:16.036Z,101948.00
2019-02-12T10:15:56.535Z,101951.00
2019-02-12T10:19:14.046Z,101954.00
2019-02-12T10:22:56.007Z,101956.00
2019-02-12T10:25:40.996Z,101961.00
2019-02-12T10:29:15.264Z,101960.00
2019-02-12T10:31:46.620Z,101976.00
2019-02-12T10:34:19.440Z,101966.00
2019-02-12T10:36:52.252Z,101974.00
2019-02-12T10:39:26.219Z,101972.00
2019-02-12T10:41:59.025Z,101979.00
2019-02-12T10:44:31.883Z,101979.00
2019-02-12T10:47:04.738Z,101983.00
2019-02-12T10:49:37.535Z,101994.00
2019-02-12T10:52:10.358Z,101989.00
2019-02-12T10:54:43.427Z,101991.00
2019-02-12T10:57:17.259Z,101993.00
2019-02-12T10:59:50.117Z,101994.00
2019-02-12T11:02:24.557Z,101991.00
2019-02-12T11:04:57.389Z,101994.00
2019-02-12T11:07:32.054Z,101983.00
2019-02-12T11:10:05.702Z,101990.00
2019-02-12T11:12:38.661Z,101980.00
2019-02-12T11:15:11.494Z,101988.00
2019-02-12T11:17:44.337Z,101984.00
2019-02-12T11:20:17.158Z,101992.00
2019-02-12T11:22:50.019Z,101999.00
2019-02-12T11:25:22.946Z,101980.00
2019-02-12T11:27:55.780Z,101984.00
2019-02-12T11:30:28.623Z,101993.00
2019-02-12T11:33:01.442Z,101999.00
2019-02-12T11:35:34.299Z,101990.00
2019-02-12T11:38:07.149Z,101986.00
2019-02-12T11:40:40.035Z,101989.00
2019-02-12T11:43:12.855Z,101986.00
2019-02-12T11:45:45.666Z,101986.00
2019-02-12T11:48:18.586Z,101978.00
2019-02-12T11:50:51.418Z,101985.00
2019-02-12T11:53:24.234Z,101977.00
2019-02-12T11:55:57.059Z,101982.00
2019-02-12T11:58:29.867Z,101987.00
2019-02-12T12:01:05.944Z,101977.00
2019-02-12T12:03:40.029Z,101975.00
2019-02-12T12:06:12.850Z,101976.00
2019-02-12T12:08:45.685Z,101979.00
2019-02-12T12:11:18.554Z,101972.00
2019-02-12T12:13:51.491Z,101973.00
2019-02-12T12:16:24.355Z,101977.00
2019-02-12T12:18:57.203Z,101980.00
2019-02-12T12:21:30.079Z,101980.00
2019-02-12T12:24:02.977Z,101974.00
2019-02-12T12:26:35.828Z,101969.00
2019-02-12T12:29:08.643Z,101972.00
2019-02-12T12:31:41.493Z,101975.00
2019-02-12T12:34:14.339Z,101972.00
2019-02-12T12:36:47.511Z,101970.00
2019-02-12T12:39:20.338Z,101968.00
2019-02-12T12:41:53.196Z,101969.00
2019-02-12T12:44:26.043Z,101966.00
2019-02-12T12:46:58.927Z,101971.00
2019-02-12T12:49:31.747Z,101969.00
2019-02-12T12:52:04.577Z,101957.00
2019-02-12T12:54:37.404Z,101969.00
2019-02-12T12:57:10.268Z,101976.00
2019-02-12T12:59:43.077Z,101968.00
2019-02-12T13:02:15.916Z,101976.00
2019-02-12T13:04:48.723Z,101981.00
2019-02-12T13:07:21.540Z,101975.00
2019-02-12T13:09:54.394Z,101977.00
2019-02-12T13:12:27.226Z,101976.00
2019-02-12T13:15:00.340Z,101980.00
2019-02-12T13:17:33.261Z,101978.00
2019-02-12T13:20:09.891Z,101981.00
2019-02-12T13:22:42.789Z,101974.00
2019-02-12T13:25:15.623Z,101979.00
2019-02-12T13:27:48.725Z,101978.00
2019-02-12T13:30:21.583Z,101979.00
2019-02-12T13:32:54.423Z,101986.00
2019-02-12T13:35:27.315Z,101975.00
2019-02-12T13:38:00.143Z,101973.00
2019-02-12T13:40:33.398Z,101984.00
2019-02-12T13:43:06.404Z,101977.00
2019-02-12T13:45:39.213Z,101978.00
2019-02-12T13:48:12.045Z,101984.00
2019-02-12T13:50:44.910Z,101986.00
2019-02-12T13:53:17.803Z,101988.00
2019-02-12T13:55:50.658Z,101990.00
2019-02-12T13:58:23.495Z,101997.00
2019-02-12T14:00:56.353Z,101986.00
2019-02-12T14:03:29.240Z,101991.00
2019-02-12T14:06:02.116Z,101989.00
2019-02-12T14:08:35.064Z,101995.00
2019-02-12T14:11:07.943Z,101989.00
2019-02-12T14:13:40.811Z,101985.00
2019-02-12T14:16:13.653Z,101992.00
2019-02-12T14:18:46.570Z,101986.00
2019-02-12T14:21:19.445Z,101992.00
2019-02-12T14:23:52.653Z,101996.00
2019-02-12T14:26:25.460Z,101994.00
2019-02-12T14:28:58.274Z,101982.00
2019-02-12T14:31:31.393Z,101982.00
2019-02-12T14:34:04.196Z,101991.00
2019-02-12T14:36:37.047Z,101982.00
2019-02-12T14:39:09.897Z,101981.00
2019-02-12T14:41:42.801Z,101986.00
2019-02-12T14:44:15.659Z,102003.00
2019-02-12T14:46:48.478Z,101994.00
2019-02-12T14:49:21.286Z,101982.00
2019-02-12T14:51:54.179Z,101981.00
2019-02-12T14:54:26.995Z,101974.00
2019-02-12T14:56:59.838Z,101987.00
2019-02-12T14:59:32.674Z,101988.00
2019-02-12T15:02:05.531Z,101987.00
2019-02-12T15:04:38.461Z,101992.00
2019-02-12T15:07:11.331Z,101984.00
2019-02-12T15:09:44.183Z,101996.00
2019-02-12T15:12:17.055Z,101994.00
2019-02-12T15:14:49.911Z,101974.00
2019-02-12T15:17:22.788Z,101984.00
2019-02-12T15:19:55.610Z,101988.00
2019-02-12T15:22:28.476Z,101993.00
2019-02-12T15:25:01.324Z,101982.00
2019-02-12T15:27:34.198Z,101994.00
2019-02-12T15:30:09.949Z,101989.00
2019-02-12T15:32:42.777Z,101998.00
2019-02-12T15:35:15.664Z,101992.00
2019-02-12T15:37:48.504Z,102002.00
2019-02-12T15:40:21.342Z,102000.00
2019-02-12T15:42:54.224Z,101994.00
2019-02-12T15:45:27.111Z,101991.00
2019-02-12T15:47:59.968Z,101994.00
2019-02-12T15:50:32.825Z,101988.00
2019-02-12T15:53:05.756Z,101982.00
2019-02-12T15:55:42.279Z,101976.00
2019-02-12T15:58:13.350Z,101984.00
2019-02-12T16:00:46.204Z,101987.00
2019-02-12T16:03:20.522Z,101994.00
2019-02-12T16:05:54.746Z,102007.00
2019-02-12T16:08:30.030Z,102010.00
2019-02-12T16:11:03.345Z,102005.00
2019-02-12T16:13:36.726Z,102011.00
2019-02-12T16:16:09.962Z,102011.00
2019-02-12T16:18:43.449Z,102010.00
2019-02-12T16:21:17.701Z,102010.00
2019-02-12T16:23:50.612Z,102013.00
2019-02-12T16:26:23.706Z,102012.00
2019-02-12T16:28:56.623Z,102011.00
2019-02-12T16:31:29.544Z,102019.00
2019-02-12T16:34:02.488Z,102024.00
2019-02-12T16:36:35.358Z,102015.00
2019-02-12T16:39:08.208Z,102013.00
2019-02-12T16:41:41.112Z,102014.00
2019-02-12T16:44:13.935Z,102014.00
2019-02-12T16:46:46.784Z,102015.00
2019-02-12T16:49:19.640Z,102013.00
2019-02-12T16:51:52.491Z,102018.00
2019-02-12T16:54:25.345Z,102024.00
2019-02-12T16:56:58.246Z,102027.00
2019-02-12T16:59:31.089Z,102023.00
2019-02-12T17:02:04.008Z,102032.00
2019-02-12T17:04:36.807Z,102031.00
2019-02-12T17:07:09.593Z,102040.00
2019-02-12T17:09:42.437Z,102038.00
2019-02-12T17:12:15.198Z,102036.00
2019-02-12T17:14:51.052Z,102040.00
2019-02-12T17:17:23.814Z,102046.00
2019-02-12T17:19:56.643Z,102048.00
2019-02-12T17:22:32.332Z,102039.00
2019-02-12T17:25:07.500Z,102045.00
2019-02-12T17:27:40.283Z,102043.00
2019-02-12T17:30:13.079Z,102051.00
2019-02-12T17:32:45.850Z,102050.00
2019-02-12T17:35:18.689Z,102052.00
2019-02-12T17:37:51.580Z,102052.00
2019-02-12T17:40:24.438Z,102054.00
2019-02-12T17:42:57.307Z,102054.00
2019-02-12T17:45:30.219Z,102061.00
2019-02-12T17:48:03.221Z,102063.00
2019-02-12T17:50:36.102Z,102058.00
2019-02-12T17:53:08.984Z,102066.00
2019-02-12T17:55:41.898Z,102071.00
2019-02-12T17:58:14.853Z,102068.00
2019-02-12T18:00:47.703Z,102069.00
2019-02-12T18:03:20.523Z,102072.00
2019-02-12T18:05:53.402Z,102070.00
2019-02-12T18:08:26.290Z,102065.00
2019-02-12T18:10:59.130Z,102077.00
2019-02-12T18:13:32.054Z,102075.00
2019-02-12T18:16:05.118Z,102084.00
2019-02-12T18:18:37.967Z,102084.00
2019-02-12T18:21:10.834Z,102085.00
2019-02-12T18:23:43.803Z,102077.00
2019-02-12T18:26:16.544Z,102087.00
2019-02-12T18:28:49.452Z,102082.00
2019-02-12T18:31:22.182Z,102084.00
2019-02-12T18:33:54.930Z,102081.00
2019-02-12T18:36:27.657Z,102082.00
2019-02-12T18:39:00.490Z,102085.00
2019-02-12T18:41:33.314Z,102078.00
2019-02-12T18:44:05.971Z,102080.00
2019-02-12T18:46:38.965Z,102072.00
2019-02-12T18:49:11.998Z,102073.00
2019-02-12T18:51:44.884Z,102087.00
2019-02-12T18:54:18.836Z,102077.00
2019-02-12T18:56:51.604Z,102085.00
2019-02-12T18:59:24.556Z,102079.00
2019-02-12T19:01:57.335Z,102090.00
2019-02-12T19:04:30.132Z,102094.00
2019-02-12T19:07:03.025Z,102102.00
2019-02-12T19:09:36.174Z,102090.00
2019-02-12T19:12:08.915Z,102099.00
2019-02-12T19:14:41.789Z,102097.00
2019-02-12T19:17:14.697Z,102094.00
2019-02-12T19:19:47.568Z,102095.00
2019-02-12T19:22:20.474Z,102098.00
2019-02-12T19:24:53.488Z,102098.00
2019-02-12T19:27:26.528Z,102105.00
2019-02-12T19:29:59.414Z,102104.00
2019-02-12T19:32:32.313Z,102103.00
2019-02-12T19:35:06.733Z,102102.00
2019-02-12T19:37:39.657Z,102093.00
2019-02-12T19:40:12.718Z,102098.00
2019-02-12T19:42:45.612Z,102087.00
2019-02-12T19:45:18.638Z,102086.00
2019-02-12T19:47:51.540Z,102091.00
2019-02-12T19:50:24.472Z,102103.00
2019-02-12T19:52:57.440Z,102102.00
2019-02-12T19:55:30.319Z,102102.00
2019-02-12T19:58:03.158Z,102114.00
2019-02-12T20:00:36.082Z,102109.00
2019-02-12T20:03:09.106Z,102103.00
2019-02-12T20:05:41.961Z,102108.00
2019-02-12T20:08:14.952Z,102109.00
2019-02-12T20:10:47.836Z,102102.00
2019-02-12T20:13:20.799Z,102108.00
2019-02-12T20:15:53.725Z,102114.00
2019-02-12T20:18:26.622Z,102113.00
2019-02-12T20:20:59.505Z,102126.00
2019-02-12T20:23:32.502Z,102112.00
2019-02-12T20:26:05.568Z,102116.00
2019-02-12T20:28:38.443Z,102120.00
2019-02-12T20:31:11.425Z,102117.00
2019-02-12T20:33:44.448Z,102109.00
2019-02-12T20:36:17.303Z,102119.00
2019-02-12T20:38:50.266Z,102114.00
2019-02-12T20:41:23.227Z,102116.00
2019-02-12T20:43:56.163Z,102122.00
2019-02-12T20:46:29.094Z,102125.00
2019-02-12T20:49:01.965Z,102119.00
2019-02-12T20:51:34.883Z,102121.00
2019-02-12T20:54:07.783Z,102116.00
2019-02-12T20:56:40.797Z,102107.00
2019-02-12T20:59:13.670Z,102117.00
2019-02-12T21:01:46.560Z,102122.00
2019-02-12T21:04:19.589Z,102130.00
2019-02-12T21:06:52.502Z,102140.00
2019-02-12T21:09:25.352Z,102134.00
2019-02-12T21:11:58.238Z,102142.00
2019-02-12T21:14:31.238Z,102143.00
2019-02-12T21:17:04.274Z,102137.00
2019-02-12T21:19:37.103Z,102133.00
2019-02-12T21:22:10.032Z,102128.00
2019-02-12T21:24:42.933Z,102121.00
2019-02-12T21:27:23.164Z,102127.00
2019-02-12T21:29:50.642Z,102122.00
2019-02-12T21:32:24.547Z,102121.00
2019-02-12T21:34:59.280Z,102112.00
2019-02-12T21:37:34.018Z,102114.00
2019-02-12T21:40:11.366Z,102099.00
2019-02-12T21:42:44.310Z,102116.00
2019-02-12T21:45:17.981Z,102115.00
2019-02-12T21:47:50.997Z,102126.00
2019-02-12T21:50:23.865Z,102128.00
2019-02-12T21:52:57.030Z,102141.00
2019-02-12T21:55:29.865Z,102141.00
2019-02-12T21:58:02.725Z,102131.00
2019-02-12T22:00:35.687Z,102138.00
2019-02-12T22:03:08.578Z,102130.00
2019-02-12T22:05:41.421Z,102129.00
2019-02-12T22:08:14.292Z,102127.00
2019-02-12T22:10:47.184Z,102120.00
2019-02-12T22:13:21.713Z,102122.00
2019-02-12T22:15:54.649Z,102115.00
2019-02-12T22:18:27.549Z,102126.00
2019-02-12T22:21:00.428Z,102128.00
2019-02-12T22:23:33.276Z,102119.00
2019-02-12T22:26:07.024Z,102119.00
2019-02-12T22:28:39.865Z,102127.00
2019-02-12T22:31:12.707Z,102122.00
2019-02-12T22:33:45.579Z,102128.00
2019-02-12T22:36:18.446Z,102140.00
2019-02-12T22:38:51.275Z,102136.00
2019-02-12T22:41:24.275Z,102132.00
2019-02-12T22:43:57.132Z,102129.00
2019-02-12T22:46:30.045Z,102127.00
2019-02-12T22:49:02.895Z,102122.00
2019-02-12T22:51:35.786Z,102134.00
2019-02-12T22:54:08.436Z,102128.00
2019-02-12T22:56:41.343Z,102136.00
2019-02-12T22:59:14.211Z,102132.00
2019-02-12T23:01:47.226Z,102132.00
2019-02-12T23:04:20.100Z,102130.00
2019-02-12T23:06:52.943Z,102135.00
2019-02-12T23:09:25.800Z,102146.00
2019-02-12T23:11:58.627Z,102130.00
2019-02-12T23:14:31.433Z,102134.00
2019-02-12T23:17:05.044Z,102136.00
2019-02-12T23:19:38.062Z,102144.00
2019-02-12T23:22:10.924Z,102148.00
2019-02-12T23:24:43.751Z,102151.00
2019-02-12T23:27:16.604Z,102148.00
2019-02-12T23:29:49.432Z,102149.00
2019-02-12T23:32:22.275Z,102148.00
2019-02-12T23:34:57.185Z,102138.00
2019-02-12T23:37:29.945Z,102145.00
2019-02-12T23:40:02.966Z,102142.00
2019-02-12T23:42:35.806Z,102144.00
2019-02-12T23:45:08.799Z,102146.00
2019-02-12T23:47:41.635Z,102145.00
2019-02-12T23:50:14.463Z,102151.00
2019-02-12T23:52:47.332Z,102140.00
2019-02-12T23:55:20.190Z,102148.00
2019-02-12T23:57:53.042Z,102138.00
